sensor_id;sensor_type;location;lat;lon;timestamp;pressure;altitude;pressure_sealevel;temperature;humidity
35888;BME280;21990;42.540;23.496;2023-04-19T00:01:23;93084.41;;;9.53;87.83
35888;BME280;21990;42.540;23.496;2023-04-19T00:03:49;93084.41;;;9.53;88.29
35888;BME280;21990;42.540;23.496;2023-04-19T00:06:15;93070.59;;;9.56;88.04
35888;BME280;21990;42.540;23.496;2023-04-19T00:08:42;93074.59;;;9.60;87.75
35888;BME280;21990;42.540;23.496;2023-04-19T00:11:08;93071.44;;;9.50;88.74
35888;BME280;21990;42.540;23.496;2023-04-19T00:13:33;93060.97;;;9.51;87.86
35888;BME280;21990;42.540;23.496;2023-04-19T00:15:59;93068.00;;;9.58;87.67
35888;BME280;21990;42.540;23.496;2023-04-19T00:18:25;93057.63;;;9.52;87.68
35888;BME280;21990;42.540;23.496;2023-04-19T00:20:50;93054.38;;;9.48;88.17
35888;BME280;21990;42.540;23.496;2023-04-19T00:23:16;93052.41;;;9.43;88.08
35888;BME280;21990;42.540;23.496;2023-04-19T00:25:41;93048.06;;;9.42;88.22
35888;BME280;21990;42.540;23.496;2023-04-19T00:28:07;93048.28;;;9.44;88.09
35888;BME280;21990;42.540;23.496;2023-04-19T00:30:32;93036.16;;;9.36;87.98
35888;BME280;21990;42.540;23.496;2023-04-19T00:32:58;93038.97;;;9.36;88.42
35888;BME280;21990;42.540;23.496;2023-04-19T00:35:23;93037.22;;;9.20;89.48
35888;BME280;21990;42.540;23.496;2023-04-19T00:37:49;93032.88;;;9.19;88.67
35888;BME280;21990;42.540;23.496;2023-04-19T00:40:14;93026.81;;;9.15;88.89
35888;BME280;21990;42.540;23.496;2023-04-19T00:42:41;93036.78;;;9.16;88.96
35888;BME280;21990;42.540;23.496;2023-04-19T00:45:06;93020.09;;;9.05;89.25
35888;BME280;21990;42.540;23.496;2023-04-19T00:47:33;93021.50;;;9.12;88.61
35888;BME280;21990;42.540;23.496;2023-04-19T00:49:59;93034.28;;;9.13;88.32
35888;BME280;21990;42.540;23.496;2023-04-19T00:52:24;93034.03;;;9.11;89.18
35888;BME280;21990;42.540;23.496;2023-04-19T00:54:50;93029.94;;;9.12;89.36
35888;BME280;21990;42.540;23.496;2023-04-19T00:57:16;93040.41;;;9.11;89.33
35888;BME280;21990;42.540;23.496;2023-04-19T00:59:42;93047.34;;;9.10;89.45
35888;BME280;21990;42.540;23.496;2023-04-19T01:02:08;93036.00;;;9.02;89.74
35888;BME280;21990;42.540;23.496;2023-04-19T01:04:34;93019.88;;;9.03;89.76
35888;BME280;21990;42.540;23.496;2023-04-19T01:07:01;93035.13;;;9.07;89.83
35888;BME280;21990;42.540;23.496;2023-04-19T01:09:27;93027.69;;;9.10;90.16
35888;BME280;21990;42.540;23.496;2023-04-19T01:11:52;93032.31;;;9.07;90.39
35888;BME280;21990;42.540;23.496;2023-04-19T01:14:18;93039.66;;;9.11;90.58
35888;BME280;21990;42.540;23.496;2023-04-19T01:16:44;93040.41;;;9.11;90.97
35888;BME280;21990;42.540;23.496;2023-04-19T01:19:10;93036.13;;;9.23;90.28
35888;BME280;21990;42.540;23.496;2023-04-19T01:21:36;93028.97;;;9.22;89.83
35888;BME280;21990;42.540;23.496;2023-04-19T01:24:06;93029.22;;;9.24;89.86
35888;BME280;21990;42.540;23.496;2023-04-19T01:26:32;93027.38;;;9.27;89.53
35888;BME280;21990;42.540;23.496;2023-04-19T01:28:57;93037.00;;;9.31;89.87
35888;BME280;21990;42.540;23.496;2023-04-19T01:31:22;93030.88;;;9.33;89.94
35888;BME280;21990;42.540;23.496;2023-04-19T01:33:48;93028.25;;;9.35;89.70
35888;BME280;21990;42.540;23.496;2023-04-19T01:36:14;93024.69;;;9.34;90.14
35888;BME280;21990;42.540;23.496;2023-04-19T01:38:39;93019.81;;;9.35;90.01
35888;BME280;21990;42.540;23.496;2023-04-19T01:41:05;93016.16;;;9.40;89.89
35888;BME280;21990;42.540;23.496;2023-04-19T01:43:32;93022.88;;;9.37;89.76
35888;BME280;21990;42.540;23.496;2023-04-19T01:45:57;93029.91;;;9.43;89.89
35888;BME280;21990;42.540;23.496;2023-04-19T01:48:23;93025.25;;;9.33;89.81
35888;BME280;21990;42.540;23.496;2023-04-19T01:50:48;93026.88;;;9.41;89.81
35888;BME280;21990;42.540;23.496;2023-04-19T01:53:14;93023.31;;;9.41;89.64
35888;BME280;21990;42.540;23.496;2023-04-19T01:55:39;93015.31;;;9.45;89.95
35888;BME280;21990;42.540;23.496;2023-04-19T01:58:04;93008.94;;;9.44;89.67
35888;BME280;21990;42.540;23.496;2023-04-19T02:00:30;93023.97;;;9.47;89.38
35888;BME280;21990;42.540;23.496;2023-04-19T02:02:55;93020.63;;;9.48;89.49
35888;BME280;21990;42.540;23.496;2023-04-19T02:05:21;93019.41;;;9.44;89.69
35888;BME280;21990;42.540;23.496;2023-04-19T02:07:47;93019.09;;;9.47;88.97
35888;BME280;21990;42.540;23.496;2023-04-19T02:10:12;93012.72;;;9.47;88.79
35888;BME280;21990;42.540;23.496;2023-04-19T02:12:39;93010.00;;;9.41;89.10
35888;BME280;21990;42.540;23.496;2023-04-19T02:15:05;93024.06;;;9.41;89.23
35888;BME280;21990;42.540;23.496;2023-04-19T02:17:30;93021.66;;;9.45;88.99
35888;BME280;21990;42.540;23.496;2023-04-19T02:19:56;93021.78;;;9.40;89.08
35888;BME280;21990;42.540;23.496;2023-04-19T02:22:22;93019.31;;;9.49;89.17
35888;BME280;21990;42.540;23.496;2023-04-19T02:24:50;93016.72;;;9.51;89.09
35888;BME280;21990;42.540;23.496;2023-04-19T02:27:16;93015.97;;;9.51;89.07
35888;BME280;21990;42.540;23.496;2023-04-19T02:29:42;93013.91;;;9.51;88.84
35888;BME280;21990;42.540;23.496;2023-04-19T02:32:10;93018.03;;;9.64;88.86
35888;BME280;21990;42.540;23.496;2023-04-19T02:34:35;93013.81;;;9.57;88.63
35888;BME280;21990;42.540;23.496;2023-04-19T02:37:01;93011.09;;;9.51;88.59
35888;BME280;21990;42.540;23.496;2023-04-19T02:39:27;93017.56;;;9.46;88.92
35888;BME280;21990;42.540;23.496;2023-04-19T02:41:54;93021.06;;;9.52;89.01
35888;BME280;21990;42.540;23.496;2023-04-19T02:44:19;92997.34;;;9.48;88.40
35888;BME280;21990;42.540;23.496;2023-04-19T02:46:51;93013.50;;;9.61;88.26
35888;BME280;21990;42.540;23.496;2023-04-19T02:49:18;93009.81;;;9.52;87.92
35888;BME280;21990;42.540;23.496;2023-04-19T02:51:43;93013.25;;;9.45;88.54
35888;BME280;21990;42.540;23.496;2023-04-19T02:54:10;93015.63;;;9.41;88.74
35888;BME280;21990;42.540;23.496;2023-04-19T02:56:36;93013.03;;;9.43;88.87
35888;BME280;21990;42.540;23.496;2023-04-19T02:59:01;93007.22;;;9.41;88.59
35888;BME280;21990;42.540;23.496;2023-04-19T03:01:27;93011.06;;;9.38;88.65
35888;BME280;21990;42.540;23.496;2023-04-19T03:03:53;93007.72;;;9.40;88.38
35888;BME280;21990;42.540;23.496;2023-04-19T03:06:18;93003.19;;;9.37;88.67
35888;BME280;21990;42.540;23.496;2023-04-19T03:08:44;93010.75;;;9.42;88.66
35888;BME280;21990;42.540;23.496;2023-04-19T03:11:10;93010.97;;;9.44;88.51
35888;BME280;21990;42.540;23.496;2023-04-19T03:13:36;93001.59;;;9.41;88.29
35888;BME280;21990;42.540;23.496;2023-04-19T03:16:01;93015.94;;;9.38;88.34
35888;BME280;21990;42.540;23.496;2023-04-19T03:18:27;93007.69;;;9.27;89.20
35888;BME280;21990;42.540;23.496;2023-04-19T03:20:52;93007.16;;;9.28;89.03
35888;BME280;21990;42.540;23.496;2023-04-19T03:23:18;93015.28;;;9.32;89.33
35888;BME280;21990;42.540;23.496;2023-04-19T03:25:43;93014.09;;;9.27;89.67
35888;BME280;21990;42.540;23.496;2023-04-19T03:28:09;93002.97;;;9.22;89.70
35888;BME280;21990;42.540;23.496;2023-04-19T03:30:34;93021.94;;;9.16;89.94
35888;BME280;21990;42.540;23.496;2023-04-19T03:33:00;93000.56;;;9.13;90.92
35888;BME280;21990;42.540;23.496;2023-04-19T03:35:25;93004.44;;;9.10;90.85
35888;BME280;21990;42.540;23.496;2023-04-19T03:37:53;92994.03;;;9.04;91.02
35888;BME280;21990;42.540;23.496;2023-04-19T03:40:19;92997.94;;;9.01;91.10
35888;BME280;21990;42.540;23.496;2023-04-19T03:42:45;93003.56;;;9.01;91.52
35888;BME280;21990;42.540;23.496;2023-04-19T03:45:10;93004.97;;;9.08;91.09
35888;BME280;21990;42.540;23.496;2023-04-19T03:47:36;92993.06;;;9.02;91.13
35888;BME280;21990;42.540;23.496;2023-04-19T03:50:01;93002.91;;;9.09;91.32
35888;BME280;21990;42.540;23.496;2023-04-19T03:52:27;92995.13;;;9.01;91.58
35888;BME280;21990;42.540;23.496;2023-04-19T03:54:52;92994.44;;;8.95;91.71
35888;BME280;21990;42.540;23.496;2023-04-19T03:57:18;92991.03;;;9.02;91.40
35888;BME280;21990;42.540;23.496;2023-04-19T03:59:44;92999.66;;;9.04;91.16
35888;BME280;21990;42.540;23.496;2023-04-19T04:02:09;92998.91;;;9.04;91.81
35888;BME280;21990;42.540;23.496;2023-04-19T04:04:35;93003.69;;;9.09;91.68
35888;BME280;21990;42.540;23.496;2023-04-19T04:07:00;93002.91;;;9.09;91.71
35888;BME280;21990;42.540;23.496;2023-04-19T04:09:26;93001.31;;;9.13;91.36
35888;BME280;21990;42.540;23.496;2023-04-19T04:11:52;93004.75;;;9.06;91.46
35888;BME280;21990;42.540;23.496;2023-04-19T04:14:17;93011.44;;;9.03;91.90
35888;BME280;21990;42.540;23.496;2023-04-19T04:16:42;93003.56;;;9.01;91.71
35888;BME280;21990;42.540;23.496;2023-04-19T04:19:08;93009.16;;;9.01;91.92
35888;BME280;21990;42.540;23.496;2023-04-19T04:21:33;93010.59;;;9.08;91.93
35888;BME280;21990;42.540;23.496;2023-04-19T04:23:59;93010.72;;;9.16;91.42
35888;BME280;21990;42.540;23.496;2023-04-19T04:26:28;93001.84;;;9.12;90.94
35888;BME280;21990;42.540;23.496;2023-04-19T04:28:58;93018.88;;;9.32;90.64
35888;BME280;21990;42.540;23.496;2023-04-19T04:31:26;93015.94;;;9.25;90.25
35888;BME280;21990;42.540;23.496;2023-04-19T04:33:52;93023.81;;;9.26;90.27
35888;BME280;21990;42.540;23.496;2023-04-19T04:36:20;93012.69;;;9.21;90.57
35888;BME280;21990;42.540;23.496;2023-04-19T04:38:46;93016.13;;;9.27;90.14
35888;BME280;21990;42.540;23.496;2023-04-19T04:41:12;93016.13;;;9.27;90.31
35888;BME280;21990;42.540;23.496;2023-04-19T04:43:37;93013.53;;;9.16;90.43
35888;BME280;21990;42.540;23.496;2023-04-19T04:46:04;93022.94;;;9.18;90.68
35888;BME280;21990;42.540;23.496;2023-04-19T04:48:30;93023.91;;;9.21;90.46
35888;BME280;21990;42.540;23.496;2023-04-19T04:50:56;93023.25;;;9.15;90.96
35888;BME280;21990;42.540;23.496;2023-04-19T04:53:24;93029.31;;;9.19;90.64
35888;BME280;21990;42.540;23.496;2023-04-19T04:55:49;93019.03;;;9.08;91.43
35888;BME280;21990;42.540;23.496;2023-04-19T04:58:15;93019.03;;;9.08;90.84
35888;BME280;21990;42.540;23.496;2023-04-19T05:00:41;93029.28;;;9.05;90.66
35888;BME280;21990;42.540;23.496;2023-04-19T05:03:06;93017.47;;;8.94;90.65
35888;BME280;21990;42.540;23.496;2023-04-19T05:05:32;93025.03;;;8.99;90.54
35888;BME280;21990;42.540;23.496;2023-04-19T05:07:58;93031.09;;;9.03;90.52
35888;BME280;21990;42.540;23.496;2023-04-19T05:10:23;93020.94;;;9.00;89.90
35888;BME280;21990;42.540;23.496;2023-04-19T05:12:49;93035.00;;;9.00;90.13
35888;BME280;21990;42.540;23.496;2023-04-19T05:15:14;93023.41;;;8.90;90.12
35888;BME280;21990;42.540;23.496;2023-04-19T05:17:40;93033.47;;;8.99;90.02
35888;BME280;21990;42.540;23.496;2023-04-19T05:20:07;93031.41;;;8.99;89.89
35888;BME280;21990;42.540;23.496;2023-04-19T05:22:33;93033.78;;;8.95;90.07
35888;BME280;21990;42.540;23.496;2023-04-19T05:24:58;93039.09;;;8.99;90.03
35888;BME280;21990;42.540;23.496;2023-04-19T05:27:24;93031.06;;;8.90;90.57
35888;BME280;21990;42.540;23.496;2023-04-19T05:29:49;93042.06;;;8.88;90.41
35888;BME280;21990;42.540;23.496;2023-04-19T05:32:19;93039.50;;;8.90;90.61
35888;BME280;21990;42.540;23.496;2023-04-19T05:34:51;93043.06;;;8.90;90.78
35888;BME280;21990;42.540;23.496;2023-04-19T05:37:20;93035.09;;;8.76;90.85
35888;BME280;21990;42.540;23.496;2023-04-19T05:39:46;93035.34;;;8.78;90.90
35888;BME280;21990;42.540;23.496;2023-04-19T05:42:15;93035.69;;;8.87;90.92
35888;BME280;21990;42.540;23.496;2023-04-19T05:44:41;93056.50;;;8.97;90.47
35888;BME280;21990;42.540;23.496;2023-04-19T05:47:09;93025.63;;;8.79;90.44
35888;BME280;21990;42.540;23.496;2023-04-19T05:49:35;93059.97;;;9.03;89.95
35888;BME280;21990;42.540;23.496;2023-04-19T05:52:01;93050.69;;;9.09;89.67
35888;BME280;21990;42.540;23.496;2023-04-19T05:54:26;93046.91;;;9.06;89.46
35888;BME280;21990;42.540;23.496;2023-04-19T05:56:52;93046.28;;;9.13;89.50
35888;BME280;21990;42.540;23.496;2023-04-19T05:59:18;93047.88;;;9.09;89.38
35888;BME280;21990;42.540;23.496;2023-04-19T06:01:43;93037.94;;;9.07;89.41
35888;BME280;21990;42.540;23.496;2023-04-19T06:04:09;93048.00;;;9.16;89.66
35888;BME280;21990;42.540;23.496;2023-04-19T06:06:34;93038.94;;;9.10;89.29
35888;BME280;21990;42.540;23.496;2023-04-19T06:09:02;93043.22;;;9.11;89.61
35888;BME280;21990;42.540;23.496;2023-04-19T06:11:29;93045.84;;;9.09;89.34
35888;BME280;21990;42.540;23.496;2023-04-19T06:13:54;93040.09;;;9.15;89.25
35888;BME280;21990;42.540;23.496;2023-04-19T06:16:20;93047.69;;;9.20;89.00
35888;BME280;21990;42.540;23.496;2023-04-19T06:18:45;93053.09;;;9.18;89.49
35888;BME280;21990;42.540;23.496;2023-04-19T06:21:11;93047.94;;;9.22;89.42
35888;BME280;21990;42.540;23.496;2023-04-19T06:23:37;93046.41;;;9.21;89.41
35888;BME280;21990;42.540;23.496;2023-04-19T06:26:02;93048.13;;;9.24;89.30
35888;BME280;21990;42.540;23.496;2023-04-19T06:28:28;93041.75;;;9.23;89.37
35888;BME280;21990;42.540;23.496;2023-04-19T06:30:53;93047.50;;;9.31;89.43
35888;BME280;21990;42.540;23.496;2023-04-19T06:33:19;93050.00;;;9.34;89.10
35888;BME280;21990;42.540;23.496;2023-04-19T06:35:44;93051.75;;;9.37;89.60
35888;BME280;21990;42.540;23.496;2023-04-19T06:38:09;93066.25;;;9.41;89.36
35888;BME280;21990;42.540;23.496;2023-04-19T06:40:35;93061.16;;;9.40;89.13
35888;BME280;21990;42.540;23.496;2023-04-19T06:43:01;93067.53;;;9.40;88.58
35888;BME280;21990;42.540;23.496;2023-04-19T06:45:26;93066.47;;;9.43;88.74
35888;BME280;21990;42.540;23.496;2023-04-19T06:47:52;93074.50;;;9.52;88.30
35888;BME280;21990;42.540;23.496;2023-04-19T06:50:17;93080.13;;;9.52;88.23
35888;BME280;21990;42.540;23.496;2023-04-19T06:52:43;93063.97;;;9.40;88.18
35888;BME280;21990;42.540;23.496;2023-04-19T06:55:09;93074.81;;;9.49;88.17
35888;BME280;21990;42.540;23.496;2023-04-19T06:57:36;93075.00;;;9.51;88.69
35888;BME280;21990;42.540;23.496;2023-04-19T07:00:02;93081.09;;;9.55;89.33
35888;BME280;21990;42.540;23.496;2023-04-19T07:02:28;93073.09;;;9.59;88.73
35888;BME280;21990;42.540;23.496;2023-04-19T07:04:53;93075.56;;;9.63;88.32
35888;BME280;21990;42.540;23.496;2023-04-19T07:07:19;93074.28;;;9.64;88.09
35888;BME280;21990;42.540;23.496;2023-04-19T07:09:45;93081.00;;;9.74;88.58
35888;BME280;21990;42.540;23.496;2023-04-19T07:12:10;93079.72;;;9.75;87.33
35888;BME280;21990;42.540;23.496;2023-04-19T07:14:36;93075.91;;;9.85;88.05
35888;BME280;21990;42.540;23.496;2023-04-19T07:17:03;93080.91;;;9.92;87.19
35888;BME280;21990;42.540;23.496;2023-04-19T07:19:29;93070.41;;;9.93;86.88
35888;BME280;21990;42.540;23.496;2023-04-19T07:21:55;93077.13;;;10.03;86.26
35888;BME280;21990;42.540;23.496;2023-04-19T07:24:21;93076.81;;;10.07;86.80
35888;BME280;21990;42.540;23.496;2023-04-19T07:26:46;93071.94;;;10.20;86.78
35888;BME280;21990;42.540;23.496;2023-04-19T07:29:12;93061.75;;;10.30;85.50
35888;BME280;21990;42.540;23.496;2023-04-19T07:31:37;93065.00;;;10.34;84.51
35888;BME280;21990;42.540;23.496;2023-04-19T07:34:03;93071.25;;;10.54;84.49
35888;BME280;21990;42.540;23.496;2023-04-19T07:36:28;93073.06;;;10.64;83.64
35888;BME280;21990;42.540;23.496;2023-04-19T07:38:54;93064.91;;;10.74;83.14
35888;BME280;21990;42.540;23.496;2023-04-19T07:41:20;93070.31;;;10.85;83.14
35888;BME280;21990;42.540;23.496;2023-04-19T07:43:46;93072.13;;;10.95;82.93
35888;BME280;21990;42.540;23.496;2023-04-19T07:46:12;93075.28;;;11.13;83.41
35888;BME280;21990;42.540;23.496;2023-04-19T07:48:40;93064.84;;;11.21;81.68
35888;BME280;21990;42.540;23.496;2023-04-19T07:51:10;93073.59;;;11.30;81.43
35888;BME280;21990;42.540;23.496;2023-04-19T07:53:37;93068.78;;;11.38;80.17
35888;BME280;21990;42.540;23.496;2023-04-19T07:56:03;93064.72;;;11.47;81.21
35888;BME280;21990;42.540;23.496;2023-04-19T07:58:28;93070.44;;;11.55;79.16
35888;BME280;21990;42.540;23.496;2023-04-19T08:00:54;93074.50;;;11.67;79.35
35888;BME280;21990;42.540;23.496;2023-04-19T08:03:19;93066.53;;;11.78;79.56
35888;BME280;21990;42.540;23.496;2023-04-19T08:05:46;93070.16;;;11.86;79.27
35888;BME280;21990;42.540;23.496;2023-04-19T08:08:11;93067.38;;;11.94;78.80
35888;BME280;21990;42.540;23.496;2023-04-19T08:10:37;93072.03;;;12.12;78.35
35888;BME280;21990;42.540;23.496;2023-04-19T08:13:02;93070.63;;;12.34;78.00
35888;BME280;21990;42.540;23.496;2023-04-19T08:15:28;93053.63;;;12.62;77.27
35888;BME280;21990;42.540;23.496;2023-04-19T08:17:53;93050.50;;;12.81;74.34
35888;BME280;21990;42.540;23.496;2023-04-19T08:20:19;93051.66;;;12.93;74.39
35888;BME280;21990;42.540;23.496;2023-04-19T08:22:45;93053.44;;;13.11;73.05
35888;BME280;21990;42.540;23.496;2023-04-19T08:25:11;93050.69;;;13.34;71.91
35888;BME280;21990;42.540;23.496;2023-04-19T08:27:37;93045.97;;;13.52;72.11
35888;BME280;21990;42.540;23.496;2023-04-19T08:30:03;93045.78;;;13.57;70.53
35888;BME280;21990;42.540;23.496;2023-04-19T08:32:28;93039.75;;;13.53;71.17
35888;BME280;21990;42.540;23.496;2023-04-19T08:34:54;93046.91;;;13.62;69.01
35888;BME280;21990;42.540;23.496;2023-04-19T08:37:19;93041.63;;;13.66;70.14
35888;BME280;21990;42.540;23.496;2023-04-19T08:39:45;93039.19;;;13.62;68.24
35888;BME280;21990;42.540;23.496;2023-04-19T08:42:11;93043.16;;;13.59;68.26
35888;BME280;21990;42.540;23.496;2023-04-19T08:44:36;93040.31;;;13.52;68.16
35888;BME280;21990;42.540;23.496;2023-04-19T08:47:03;93042.56;;;13.30;68.77
35888;BME280;21990;42.540;23.496;2023-04-19T08:49:33;93036.13;;;13.15;69.85
35888;BME280;21990;42.540;23.496;2023-04-19T08:52:00;93040.81;;;13.12;71.05
35888;BME280;21990;42.540;23.496;2023-04-19T08:54:28;93034.94;;;13.03;71.51
35888;BME280;21990;42.540;23.496;2023-04-19T08:56:54;93032.50;;;13.07;71.93
35888;BME280;21990;42.540;23.496;2023-04-19T08:59:21;93033.97;;;13.08;71.78
35888;BME280;21990;42.540;23.496;2023-04-19T09:01:46;93032.16;;;13.10;70.48
35888;BME280;21990;42.540;23.496;2023-04-19T09:04:12;93031.97;;;13.16;71.30
35888;BME280;21990;42.540;23.496;2023-04-19T09:06:38;93018.59;;;13.31;71.89
35888;BME280;21990;42.540;23.496;2023-04-19T09:09:22;93018.41;;;13.45;71.67
35888;BME280;21990;42.540;23.496;2023-04-19T09:11:48;93022.41;;;13.64;71.71
35888;BME280;21990;42.540;23.496;2023-04-19T09:14:15;93020.69;;;13.84;70.56
35888;BME280;21990;42.540;23.496;2023-04-19T09:16:42;93020.09;;;13.93;68.75
35888;BME280;21990;42.540;23.496;2023-04-19T09:19:09;93021.22;;;13.98;68.32
35888;BME280;21990;42.540;23.496;2023-04-19T09:21:37;93022.19;;;14.00;67.90
35888;BME280;21990;42.540;23.496;2023-04-19T09:24:03;93014.63;;;13.95;67.62
35888;BME280;21990;42.540;23.496;2023-04-19T09:26:28;93023.69;;;13.86;67.57
35888;BME280;21990;42.540;23.496;2023-04-19T09:28:55;93023.69;;;13.71;67.19
35888;BME280;21990;42.540;23.496;2023-04-19T09:31:21;93029.00;;;13.59;67.82
35888;BME280;21990;42.540;23.496;2023-04-19T09:33:46;93026.91;;;13.60;68.09
35888;BME280;21990;42.540;23.496;2023-04-19T09:36:28;93025.59;;;13.61;69.63
35888;BME280;21990;42.540;23.496;2023-04-19T09:38:55;93027.69;;;13.68;70.29
35888;BME280;21990;42.540;23.496;2023-04-19T09:41:21;93031.81;;;13.90;70.24
35888;BME280;21990;42.540;23.496;2023-04-19T09:43:46;93018.41;;;13.98;67.07
35888;BME280;21990;42.540;23.496;2023-04-19T09:46:44;93023.09;;;14.10;68.72
35888;BME280;21990;42.540;23.496;2023-04-19T09:51:42;93020.59;;;14.37;67.32
35888;BME280;21990;42.540;23.496;2023-04-19T09:54:10;93010.53;;;14.51;66.35
35888;BME280;21990;42.540;23.496;2023-04-19T09:56:36;93015.63;;;14.60;67.46
35888;BME280;21990;42.540;23.496;2023-04-19T09:59:03;93010.31;;;14.64;67.51
35888;BME280;21990;42.540;23.496;2023-04-19T10:01:45;93017.44;;;14.81;66.66
35888;BME280;21990;42.540;23.496;2023-04-19T10:04:13;93005.75;;;15.09;70.38
35888;BME280;21990;42.540;23.496;2023-04-19T10:06:47;93010.09;;;15.42;66.41
35888;BME280;21990;42.540;23.496;2023-04-19T10:09:13;93011.16;;;15.54;62.82
35888;BME280;21990;42.540;23.496;2023-04-19T10:11:39;92997.94;;;15.74;63.50
35888;BME280;21990;42.540;23.496;2023-04-19T10:14:09;93001.88;;;15.79;61.67
35888;BME280;21990;42.540;23.496;2023-04-19T10:16:36;92996.47;;;15.90;62.77
35888;BME280;21990;42.540;23.496;2023-04-19T10:19:06;92996.41;;;15.98;61.57
35888;BME280;21990;42.540;23.496;2023-04-19T10:21:33;93002.84;;;15.98;61.17
35888;BME280;21990;42.540;23.496;2023-04-19T10:23:59;92999.19;;;16.05;59.87
35888;BME280;21990;42.540;23.496;2023-04-19T10:26:25;92998.72;;;15.92;59.67
35888;BME280;21990;42.540;23.496;2023-04-19T10:28:53;92994.75;;;15.95;61.03
35888;BME280;21990;42.540;23.496;2023-04-19T10:31:20;92988.03;;;16.00;62.33
35888;BME280;21990;42.540;23.496;2023-04-19T10:33:48;92989.75;;;16.20;61.79
35888;BME280;21990;42.540;23.496;2023-04-19T10:36:16;92988.22;;;16.19;59.38
35888;BME280;21990;42.540;23.496;2023-04-19T10:38:49;92988.66;;;16.15;57.84
35888;BME280;21990;42.540;23.496;2023-04-19T10:41:20;92988.66;;;16.15;59.66
35888;BME280;21990;42.540;23.496;2023-04-19T10:48:55;92977.69;;;16.12;56.59
35888;BME280;21990;42.540;23.496;2023-04-19T10:51:46;92979.63;;;16.09;56.92
35888;BME280;21990;42.540;23.496;2023-04-19T10:54:32;92972.28;;;16.06;57.17
35888;BME280;21990;42.540;23.496;2023-04-19T10:57:02;92971.25;;;16.11;57.28
35888;BME280;21990;42.540;23.496;2023-04-19T10:59:33;92969.34;;;16.14;57.64
35888;BME280;21990;42.540;23.496;2023-04-19T11:02:01;92969.28;;;16.22;57.37
35888;BME280;21990;42.540;23.496;2023-04-19T11:07:03;92965.59;;;16.29;60.75
35888;BME280;21990;42.540;23.496;2023-04-19T11:09:32;92962.81;;;16.38;58.81
35888;BME280;21990;42.540;23.496;2023-04-19T11:14:32;92963.50;;;16.46;59.37
35888;BME280;21990;42.540;23.496;2023-04-19T11:16:59;92960.97;;;16.50;57.75
35888;BME280;21990;42.540;23.496;2023-04-19T11:19:25;92969.59;;;16.43;56.08
35888;BME280;21990;42.540;23.496;2023-04-19T11:21:50;92964.34;;;16.39;57.43
35888;BME280;21990;42.540;23.496;2023-04-19T11:24:16;92961.34;;;16.37;56.78
35888;BME280;21990;42.540;23.496;2023-04-19T11:26:46;92962.25;;;16.40;55.94
35888;BME280;21990;42.540;23.496;2023-04-19T11:29:15;92964.00;;;16.35;55.51
35888;BME280;21990;42.540;23.496;2023-04-19T11:31:44;92962.09;;;16.38;56.95
35888;BME280;21990;42.540;23.496;2023-04-19T11:34:11;92961.00;;;16.33;56.41
35888;BME280;21990;42.540;23.496;2023-04-19T11:36:46;92964.75;;;16.36;56.88
35888;BME280;21990;42.540;23.496;2023-04-19T11:39:12;92966.94;;;16.28;54.67
35888;BME280;21990;42.540;23.496;2023-04-19T11:41:38;92965.75;;;16.31;56.63
35888;BME280;21990;42.540;23.496;2023-04-19T11:44:15;92957.91;;;16.22;54.64
35888;BME280;21990;42.540;23.496;2023-04-19T11:46:41;92965.69;;;16.21;55.73
35888;BME280;21990;42.540;23.496;2023-04-19T11:49:07;92961.84;;;16.26;56.10
35888;BME280;21990;42.540;23.496;2023-04-19T11:51:33;92959.47;;;16.15;54.92
35888;BME280;21990;42.540;23.496;2023-04-19T11:53:58;92954.63;;;16.08;55.87
35888;BME280;21990;42.540;23.496;2023-04-19T11:56:24;92954.13;;;16.02;55.04
35888;BME280;21990;42.540;23.496;2023-04-19T11:58:49;92955.47;;;16.18;55.70
35888;BME280;21990;42.540;23.496;2023-04-19T12:01:19;92958.06;;;16.24;53.79
35888;BME280;21990;42.540;23.496;2023-04-19T12:03:53;92954.53;;;16.15;53.78
35888;BME280;21990;42.540;23.496;2023-04-19T12:06:29;92943.59;;;16.12;54.90
35888;BME280;21990;42.540;23.496;2023-04-19T12:08:58;92946.78;;;16.16;55.54
35888;BME280;21990;42.540;23.496;2023-04-19T12:11:25;92945.09;;;16.13;53.53
35888;BME280;21990;42.540;23.496;2023-04-19T12:14:10;92939.00;;;16.17;52.48
35888;BME280;21990;42.540;23.496;2023-04-19T12:16:36;92930.38;;;16.24;54.21
35888;BME280;21990;42.540;23.496;2023-04-19T12:19:15;92938.00;;;16.22;53.04
35888;BME280;21990;42.540;23.496;2023-04-19T12:21:42;92944.03;;;16.26;54.36
35888;BME280;21990;42.540;23.496;2023-04-19T12:24:08;92951.63;;;16.23;53.94
35888;BME280;21990;42.540;23.496;2023-04-19T12:26:34;92943.09;;;16.06;54.97
35888;BME280;21990;42.540;23.496;2023-04-19T12:29:02;92952.81;;;16.03;53.99
35888;BME280;21990;42.540;23.496;2023-04-19T12:31:29;92943.25;;;15.91;55.58
35888;BME280;21990;42.540;23.496;2023-04-19T12:33:56;92941.13;;;15.74;55.10
35888;BME280;21990;42.540;23.496;2023-04-19T12:36:21;92946.97;;;15.59;56.39
35888;BME280;21990;42.540;23.496;2023-04-19T12:38:47;92953.53;;;15.12;57.26
35888;BME280;21990;42.540;23.496;2023-04-19T12:41:12;92951.34;;;14.95;57.75
35888;BME280;21990;42.540;23.496;2023-04-19T12:43:38;92945.97;;;14.82;57.75
35888;BME280;21990;42.540;23.496;2023-04-19T12:46:04;92945.91;;;14.90;60.47
35888;BME280;21990;42.540;23.496;2023-04-19T12:48:29;92939.53;;;14.82;58.67
35888;BME280;21990;42.540;23.496;2023-04-19T12:50:55;92944.16;;;14.94;59.82
35888;BME280;21990;42.540;23.496;2023-04-19T12:53:20;92946.97;;;15.02;59.06
35888;BME280;21990;42.540;23.496;2023-04-19T12:55:48;92960.56;;;15.03;59.82
35888;BME280;21990;42.540;23.496;2023-04-19T12:58:16;92967.06;;;14.96;60.69
35888;BME280;21990;42.540;23.496;2023-04-19T13:00:43;92960.31;;;14.84;62.42
35888;BME280;21990;42.540;23.496;2023-04-19T13:03:09;92969.03;;;14.79;62.11
35888;BME280;21990;42.540;23.496;2023-04-19T13:05:36;92961.94;;;14.62;63.78